createdAt,value
2022-09-23T00:01:07.519Z,7.53
2022-09-23T00:03:37.281Z,6.93
2022-09-23T00:06:07.293Z,6.93
2022-09-23T00:08:34.479Z,6.65
2022-09-23T00:11:06.489Z,7.07
2022-09-23T00:13:34.673Z,7.15
2022-09-23T00:16:10.263Z,6.13
2022-09-23T00:18:37.204Z,6.95
2022-09-23T00:21:05.555Z,6.82
2022-09-23T00:23:33.219Z,6.57
2022-09-23T00:26:02.543Z,7.30
2022-09-23T00:28:30.105Z,6.10
2022-09-23T00:30:57.031Z,6.20
2022-09-23T00:33:23.857Z,7.35
2022-09-23T00:35:50.568Z,7.35
2022-09-23T00:38:17.485Z,7.32
2022-09-23T00:40:46.137Z,7.95
2022-09-23T00:43:14.811Z,8.13
2022-09-23T00:45:47.682Z,7.68
2022-09-23T00:48:17.616Z,7.10
2022-09-23T00:50:48.919Z,8.52
2022-09-23T00:53:19.874Z,8.00
2022-09-23T00:55:50.303Z,7.25
2022-09-23T00:58:21.074Z,7.72
2022-09-23T01:00:48.015Z,8.40
2022-09-23T01:03:15.281Z,8.52
2022-09-23T01:05:42.992Z,8.35
2022-09-23T01:08:12.925Z,9.65
2022-09-23T01:10:48.764Z,8.68
2022-09-23T01:16:08.898Z,8.77
2022-09-23T01:19:03.006Z,8.95
2022-09-23T01:21:38.313Z,9.23
2022-09-23T01:24:37.216Z,8.55
2022-09-23T01:27:30.864Z,9.23
2022-09-23T01:30:13.072Z,9.32
2022-09-23T01:33:04.602Z,9.65
2022-09-23T01:35:38.570Z,8.57
2022-09-23T01:38:11.279Z,9.63
2022-09-23T01:40:59.242Z,9.55
2022-09-23T01:43:46.798Z,9.05
2022-09-23T01:46:20.575Z,8.85
2022-09-23T01:48:56.260Z,9.38
2022-09-23T01:51:39.068Z,10.50
2022-09-23T01:54:18.264Z,9.63
2022-09-23T01:56:58.856Z,10.05
2022-09-23T01:59:56.952Z,10.10
2022-09-23T02:02:36.054Z,8.43
2022-09-23T02:05:12.991Z,9.57
2022-09-23T02:08:07.629Z,8.27
2022-09-23T02:10:47.699Z,8.20
2022-09-23T02:13:24.195Z,8.65
2022-09-23T02:15:55.921Z,8.20
2022-09-23T02:18:26.573Z,7.70
2022-09-23T02:20:58.733Z,7.68
2022-09-23T02:23:42.514Z,8.18
2022-09-23T02:26:29.751Z,8.25
2022-09-23T02:29:21.545Z,7.38
2022-09-23T02:32:16.089Z,8.25
2022-09-23T02:35:07.549Z,7.95
2022-09-23T02:37:43.696Z,8.07
2022-09-23T02:40:38.573Z,7.60
2022-09-23T02:43:15.084Z,8.07
2022-09-23T02:45:42.125Z,8.13
2022-09-23T02:48:31.763Z,8.48
2022-09-23T02:51:00.792Z,8.07
2022-09-23T02:53:27.767Z,8.20
2022-09-23T02:55:54.548Z,7.47
2022-09-23T02:58:21.397Z,7.40
2022-09-23T03:01:00.152Z,7.72
2022-09-23T03:03:48.595Z,7.80
2022-09-23T03:06:24.622Z,7.35
2022-09-23T03:08:58.223Z,8.48
2022-09-23T03:11:26.281Z,7.68
2022-09-23T03:14:17.205Z,7.60
2022-09-23T03:17:16.015Z,8.23
2022-09-23T03:19:49.186Z,7.50
2022-09-23T03:22:24.605Z,8.63
2022-09-23T03:24:54.172Z,7.18
2022-09-23T03:27:25.696Z,7.60
2022-09-23T03:29:54.278Z,8.77
2022-09-23T03:32:24.683Z,8.18
2022-09-23T03:34:54.285Z,7.18
2022-09-23T03:37:31.406Z,8.25
2022-09-23T03:40:26.619Z,7.45
2022-09-23T03:42:56.188Z,6.95
2022-09-23T03:45:27.549Z,7.60
2022-09-23T03:47:54.415Z,7.68
2022-09-23T03:50:21.378Z,8.05
2022-09-23T03:52:50.502Z,7.47
2022-09-23T03:55:19.231Z,9.13
2022-09-23T03:57:46.112Z,10.43
2022-09-23T04:00:14.696Z,8.32
2022-09-23T04:02:42.027Z,7.78
2022-09-23T04:05:10.461Z,7.88
2022-09-23T04:07:37.397Z,7.47
2022-09-23T04:10:05.707Z,8.00
2022-09-23T04:12:32.538Z,8.00
2022-09-23T04:14:59.395Z,8.13
2022-09-23T04:17:26.191Z,7.53
2022-09-23T04:19:52.969Z,7.22
2022-09-23T04:22:19.819Z,7.90
2022-09-23T04:24:46.628Z,8.32
2022-09-23T04:27:13.430Z,7.97
2022-09-23T04:29:40.224Z,8.15
2022-09-23T04:32:07.016Z,8.93
2022-09-23T04:34:33.861Z,8.60
2022-09-23T04:37:00.682Z,9.00
2022-09-23T04:39:27.513Z,8.30
2022-09-23T04:41:54.305Z,8.32
2022-09-23T04:44:21.357Z,7.82
2022-09-23T04:46:49.343Z,7.57
2022-09-23T04:49:16.756Z,8.77
2022-09-23T04:51:43.828Z,8.77
2022-09-23T04:54:12.279Z,8.00
2022-09-23T04:56:39.860Z,7.57
2022-09-23T04:59:07.298Z,8.35
2022-09-23T05:01:36.253Z,7.57
2022-09-23T05:04:05.889Z,8.23
2022-09-23T05:06:37.416Z,7.43
2022-09-23T05:09:06.459Z,7.57
2022-09-23T05:11:33.807Z,7.68
2022-09-23T05:14:00.892Z,7.63
2022-09-23T05:16:28.010Z,6.90
2022-09-23T05:18:54.844Z,7.03
2022-09-23T05:21:23.853Z,7.35
2022-09-23T05:23:55.573Z,7.25
2022-09-23T05:26:25.476Z,7.50
2022-09-23T05:28:53.960Z,6.57
2022-09-23T05:31:23.318Z,6.88
2022-09-23T05:33:52.662Z,6.70
2022-09-23T05:36:21.274Z,6.53
2022-09-23T05:38:50.149Z,6.53
2022-09-23T05:41:18.568Z,6.30
2022-09-23T05:43:45.603Z,6.50
2022-09-23T05:46:16.223Z,7.20
2022-09-23T05:48:45.875Z,6.70
2022-09-23T05:51:21.684Z,6.20
2022-09-23T05:56:19.699Z,6.63
2022-09-23T05:58:48.966Z,6.20
2022-09-23T06:01:21.082Z,7.00
2022-09-23T06:03:49.114Z,7.95
2022-09-23T06:06:20.550Z,6.45
2022-09-23T06:08:48.092Z,6.40
2022-09-23T06:11:15.469Z,6.00
2022-09-23T06:13:42.600Z,6.55
2022-09-23T06:16:12.013Z,6.35
2022-09-23T06:18:40.879Z,6.72
2022-09-23T06:21:08.399Z,6.95
2022-09-23T06:23:38.835Z,7.43
2022-09-23T06:26:09.822Z,6.10
2022-09-23T06:28:38.690Z,6.47
2022-09-23T06:31:12.844Z,6.28
2022-09-23T06:33:40.329Z,6.13
2022-09-23T06:36:08.200Z,6.50
2022-09-23T06:38:38.325Z,6.15
2022-09-23T06:41:05.235Z,6.90
2022-09-23T06:43:32.177Z,6.78
2022-09-23T06:46:00.667Z,6.28
2022-09-23T06:48:28.648Z,6.43
2022-09-23T06:50:59.491Z,6.35
2022-09-23T06:53:26.412Z,6.43
2022-09-23T06:56:07.416Z,5.95
2022-09-23T06:58:36.319Z,6.05
2022-09-23T07:01:05.541Z,6.15
2022-09-23T07:03:32.343Z,6.88
2022-09-23T07:06:00.020Z,6.20
2022-09-23T07:08:28.055Z,6.32
2022-09-23T07:10:56.245Z,6.18
2022-09-23T07:13:23.742Z,7.35
2022-09-23T07:15:51.994Z,7.60
2022-09-23T07:18:20.026Z,8.85
2022-09-23T07:20:46.806Z,8.15
2022-09-23T07:23:13.767Z,8.38
2022-09-23T07:25:40.737Z,8.82
2022-09-23T07:28:07.584Z,8.93
2022-09-23T07:30:39.637Z,9.10
2022-09-23T07:33:26.107Z,8.77
2022-09-23T07:35:55.029Z,8.32
2022-09-23T07:38:30.445Z,8.57
2022-09-23T07:41:24.531Z,9.10
2022-09-23T07:43:55.580Z,8.70
2022-09-23T07:46:22.375Z,8.63
2022-09-23T07:48:49.169Z,7.88
2022-09-23T07:51:20.744Z,8.38
2022-09-23T07:53:49.154Z,8.25
2022-09-23T07:56:17.332Z,8.38
2022-09-23T07:58:44.222Z,8.45
2022-09-23T08:01:12.167Z,7.80
2022-09-23T08:03:39.649Z,7.32
2022-09-23T08:06:13.585Z,8.27
2022-09-23T08:08:43.725Z,7.97
2022-09-23T08:11:13.342Z,7.80
2022-09-23T08:13:41.209Z,8.63
2022-09-23T08:16:08.532Z,8.75
2022-09-23T08:18:35.479Z,8.05
2022-09-23T08:21:02.361Z,8.48
2022-09-23T08:23:33.596Z,9.30
2022-09-23T08:26:05.702Z,9.25
2022-09-23T08:28:33.835Z,9.23
2022-09-23T08:31:00.996Z,9.48
2022-09-23T08:33:27.868Z,9.30
2022-09-23T08:35:59.976Z,7.93
2022-09-23T08:38:27.302Z,6.50
2022-09-23T08:41:04.452Z,6.20
2022-09-23T08:43:33.917Z,5.55
2022-09-23T08:46:04.361Z,5.45
2022-09-23T08:48:35.824Z,5.70
2022-09-23T08:51:06.616Z,6.00
2022-09-23T08:53:36.032Z,5.55
2022-09-23T08:56:11.978Z,6.00
2022-09-23T08:59:07.828Z,5.30
2022-09-23T09:01:46.402Z,5.30
2022-09-23T09:04:42.347Z,4.40
2022-09-23T09:07:35.357Z,4.77
2022-09-23T09:10:10.279Z,4.97
2022-09-23T09:12:49.811Z,5.22
2022-09-23T09:15:19.553Z,4.75
2022-09-23T09:18:01.655Z,4.78
2022-09-23T09:20:44.334Z,4.90
2022-09-23T09:23:20.294Z,4.53
2022-09-23T09:25:49.594Z,3.80
2022-09-23T09:28:31.121Z,3.92
2022-09-23T09:31:01.449Z,3.15
2022-09-23T09:33:45.317Z,3.63
2022-09-23T09:36:30.839Z,4.15
2022-09-23T09:39:00.901Z,4.32
2022-09-23T09:41:31.554Z,3.83
2022-09-23T09:44:01.480Z,3.60
2022-09-23T09:46:49.437Z,4.15
2022-09-23T09:49:26.250Z,3.97
2022-09-23T09:52:13.291Z,4.57
2022-09-23T09:54:40.561Z,4.25
2022-09-23T09:57:18.498Z,4.07
2022-09-23T09:59:45.402Z,5.35
2022-09-23T10:02:21.437Z,4.57
2022-09-23T10:05:00.197Z,4.25
2022-09-23T10:07:30.586Z,3.90
2022-09-23T10:10:01.910Z,4.30
2022-09-23T10:12:46.765Z,3.90
2022-09-23T10:15:33.167Z,3.67
2022-09-23T10:18:02.206Z,3.40
2022-09-23T10:20:38.179Z,3.22
2022-09-23T10:23:14.364Z,3.10
2022-09-23T10:25:42.232Z,3.15
2022-09-23T10:28:41.280Z,3.40
2022-09-23T10:31:24.679Z,3.03
2022-09-23T10:33:55.684Z,3.47
2022-09-23T10:36:22.439Z,4.00
2022-09-23T10:38:54.967Z,3.33
2022-09-23T10:41:57.899Z,3.38
2022-09-23T10:44:52.571Z,3.00
2022-09-23T10:47:56.794Z,3.00
2022-09-23T10:50:47.564Z,2.45
2022-09-23T10:53:26.099Z,1.73
2022-09-23T10:55:58.956Z,1.80
2022-09-23T10:58:37.694Z,1.60
2022-09-23T11:01:26.920Z,1.60
2022-09-23T11:04:16.567Z,1.70
2022-09-23T11:06:46.467Z,1.95
2022-09-23T11:09:25.222Z,1.60
2022-09-23T11:12:18.431Z,1.77
2022-09-23T11:15:00.297Z,2.13
2022-09-23T11:17:47.558Z,2.10
2022-09-23T11:20:49.553Z,1.80
2022-09-23T11:23:32.218Z,1.65
2022-09-23T11:26:33.110Z,2.00
2022-09-23T11:29:35.670Z,1.35
2022-09-23T11:32:27.662Z,1.02
2022-09-23T11:35:06.368Z,1.08
2022-09-23T11:37:42.131Z,1.42
2022-09-23T11:43:07.245Z,1.33
2022-09-23T11:45:40.638Z,1.20
2022-09-23T11:48:37.182Z,0.88
2022-09-23T11:51:10.111Z,1.20
2022-09-23T11:54:01.964Z,0.82
2022-09-23T11:56:44.684Z,0.90
2022-09-23T11:59:41.740Z,1.10
2022-09-23T12:02:30.595Z,0.90
2022-09-23T12:05:03.804Z,1.02
2022-09-23T12:07:58.066Z,1.02
2022-09-23T12:10:48.751Z,1.02
2022-09-23T12:13:36.034Z,0.95
2022-09-23T12:16:36.895Z,1.08
2022-09-23T12:19:40.647Z,1.10
2022-09-23T12:22:26.594Z,1.10
2022-09-23T12:25:05.555Z,1.00
2022-09-23T12:27:46.225Z,1.15
2022-09-23T12:30:19.298Z,0.90
2022-09-23T12:32:46.364Z,1.42
2022-09-23T12:35:25.496Z,2.10
2022-09-23T12:37:53.529Z,1.63
2022-09-23T12:40:40.861Z,1.60
2022-09-23T12:43:34.537Z,0.98
2022-09-23T12:46:27.529Z,1.17
2022-09-23T12:48:58.127Z,1.10
2022-09-23T12:51:29.678Z,1.27
2022-09-23T12:54:04.260Z,1.25
2022-09-23T12:56:37.034Z,1.33
2022-09-23T12:59:09.347Z,1.60
2022-09-23T13:01:38.168Z,1.92
2022-09-23T13:04:23.902Z,2.50
2022-09-23T13:07:03.804Z,1.55
2022-09-23T13:09:37.706Z,1.85
2022-09-23T13:12:13.888Z,2.42
2022-09-23T13:14:45.033Z,1.92
2022-09-23T13:17:35.887Z,1.80
2022-09-23T13:20:20.883Z,1.85
2022-09-23T13:22:53.290Z,1.73
2022-09-23T13:25:26.397Z,1.80
2022-09-23T13:28:00.524Z,1.75
2022-09-23T13:30:27.935Z,1.50
2022-09-23T13:33:10.534Z,1.95
2022-09-23T13:35:50.734Z,1.75
2022-09-23T13:38:26.388Z,1.80
2022-09-23T13:43:45.278Z,1.60
2022-09-23T13:46:18.362Z,2.47
2022-09-23T13:48:47.495Z,2.13
2022-09-23T13:51:44.493Z,2.08
2022-09-23T13:54:29.586Z,2.42
2022-09-23T13:56:56.799Z,2.70
2022-09-23T13:59:26.463Z,2.38
2022-09-23T14:02:20.076Z,2.53
2022-09-23T14:04:47.065Z,2.42
2022-09-23T14:07:16.280Z,2.55
2022-09-23T14:09:47.217Z,2.50
2022-09-23T14:12:15.046Z,3.20
2022-09-23T14:14:43.348Z,3.08
2022-09-23T14:17:16.966Z,2.97
2022-09-23T14:19:44.141Z,3.08
2022-09-23T14:22:28.242Z,2.90
2022-09-23T14:24:56.473Z,2.95
2022-09-23T14:27:32.456Z,2.97
2022-09-23T14:30:02.203Z,2.90
2022-09-23T14:32:30.074Z,3.17
2022-09-23T14:35:18.249Z,3.15
2022-09-23T14:38:04.702Z,3.05
2022-09-23T14:40:49.500Z,2.95
2022-09-23T14:43:27.176Z,2.72
2022-09-23T14:45:58.735Z,2.72
2022-09-23T14:48:31.705Z,2.70
2022-09-23T14:51:03.806Z,2.25
2022-09-23T14:53:37.943Z,2.80
2022-09-23T14:56:13.862Z,2.63
2022-09-23T14:58:54.234Z,2.50
2022-09-23T15:01:32.945Z,2.47
2022-09-23T15:04:10.065Z,2.67
2022-09-23T15:06:38.757Z,3.30
2022-09-23T15:09:07.099Z,2.70
2022-09-23T15:11:36.120Z,2.25
2022-09-23T15:14:33.210Z,2.80
2022-09-23T15:16:53.772Z,2.78
2022-09-23T15:19:22.206Z,2.70
2022-09-23T15:21:54.370Z,2.38
2022-09-23T15:24:40.359Z,2.65
2022-09-23T15:27:22.695Z,2.85
2022-09-23T15:29:50.352Z,2.72
2022-09-23T15:32:17.207Z,2.78
2022-09-23T15:34:43.988Z,3.10
2022-09-23T15:37:13.027Z,2.72
2022-09-23T15:39:39.795Z,2.70
2022-09-23T15:42:10.253Z,2.67
2022-09-23T15:44:38.066Z,2.58
2022-09-23T15:47:05.107Z,3.03
2022-09-23T15:49:36.691Z,2.70
2022-09-23T15:52:05.356Z,2.83
2022-09-23T15:54:35.132Z,2.88
2022-09-23T15:57:02.186Z,3.00
2022-09-23T15:59:31.061Z,2.72
2022-09-23T16:02:01.174Z,2.67
2022-09-23T16:04:28.327Z,2.95
2022-09-23T16:06:55.188Z,2.83
2022-09-23T16:09:21.961Z,2.88
2022-09-23T16:11:51.955Z,3.10
2022-09-23T16:14:20.099Z,3.38
2022-09-23T16:16:47.949Z,3.10
2022-09-23T16:19:15.724Z,3.60
2022-09-23T16:21:43.257Z,3.35
2022-09-23T16:24:17.341Z,3.60
2022-09-23T16:26:45.311Z,4.70
2022-09-23T16:29:12.407Z,5.38
2022-09-23T16:31:39.367Z,5.82
2022-09-23T16:34:06.352Z,5.40
2022-09-23T16:36:35.893Z,6.35
2022-09-23T16:39:06.390Z,6.43
2022-09-23T16:41:33.708Z,6.25
2022-09-23T16:44:04.418Z,6.22
2022-09-23T16:46:32.377Z,6.68
2022-09-23T16:48:59.592Z,7.07
2022-09-23T16:51:29.310Z,6.28
2022-09-23T16:53:57.885Z,6.72
2022-09-23T16:56:28.953Z,6.50
2022-09-23T16:58:56.781Z,6.82
2022-09-23T17:01:47.424Z,6.22
2022-09-23T17:04:16.568Z,6.75
2022-09-23T17:06:50.242Z,6.70
2022-09-23T17:09:18.838Z,6.88
2022-09-23T17:11:48.947Z,7.45
2022-09-23T17:14:16.484Z,7.15
2022-09-23T17:16:43.822Z,7.78
2022-09-23T17:19:11.957Z,7.13
2022-09-23T17:21:39.851Z,7.10
2022-09-23T17:24:07.411Z,7.60
2022-09-23T17:26:34.590Z,7.72
2022-09-23T17:29:02.229Z,6.88
2022-09-23T17:31:30.734Z,7.15
2022-09-23T17:33:57.746Z,7.72
2022-09-23T17:36:24.768Z,8.55
2022-09-23T17:38:53.785Z,7.75
2022-09-23T17:41:21.306Z,8.05
2022-09-23T17:43:53.430Z,8.48
2022-09-23T17:46:20.436Z,9.20
2022-09-23T17:48:47.403Z,8.00
2022-09-23T17:51:21.731Z,8.23
2022-09-23T17:53:49.757Z,7.63
2022-09-23T17:56:17.852Z,7.25
2022-09-23T17:58:46.143Z,7.53
2022-09-23T18:01:16.329Z,7.20
2022-09-23T18:03:43.672Z,6.97
2022-09-23T18:06:18.883Z,7.20
2022-09-23T18:08:47.305Z,6.20
2022-09-23T18:11:18.552Z,5.75
2022-09-23T18:13:54.078Z,5.15
2022-09-23T18:16:23.775Z,5.55
2022-09-23T18:18:55.923Z,4.38
2022-09-23T18:21:25.677Z,4.70
2022-09-23T18:23:52.736Z,4.35
2022-09-23T18:26:24.276Z,4.03
2022-09-23T18:28:53.783Z,4.95
2022-09-23T18:31:21.243Z,5.00
2022-09-23T18:33:52.873Z,5.55
2022-09-23T18:36:20.960Z,3.78
2022-09-23T18:38:48.615Z,4.60
2022-09-23T18:41:15.836Z,4.65
2022-09-23T18:43:47.602Z,4.40
2022-09-23T18:46:23.997Z,4.70
2022-09-23T18:49:10.965Z,4.93
2022-09-23T18:51:46.680Z,5.00
2022-09-23T18:54:13.556Z,4.45
2022-09-23T18:56:42.373Z,4.82
2022-09-23T18:59:13.098Z,4.97
2022-09-23T19:01:40.556Z,5.22
2022-09-23T19:04:07.561Z,4.82
2022-09-23T19:06:35.279Z,5.47
2022-09-23T19:09:02.413Z,5.13
2022-09-23T19:11:29.304Z,5.00
2022-09-23T19:13:58.495Z,5.53
2022-09-23T19:16:26.819Z,5.93
2022-09-23T19:18:54.474Z,5.32
2022-09-23T19:21:22.710Z,6.00
2022-09-23T19:23:52.007Z,5.03
2022-09-23T19:26:26.021Z,5.68
2022-09-23T19:28:57.471Z,5.97
2022-09-23T19:31:33.544Z,6.60
2022-09-23T19:34:24.812Z,5.30
2022-09-23T19:36:53.052Z,5.05
2022-09-23T19:39:24.538Z,5.07
2022-09-23T19:41:52.820Z,5.25
2022-09-23T19:44:20.337Z,4.63
2022-09-23T19:46:55.010Z,4.43
2022-09-23T19:51:51.050Z,4.65
2022-09-23T19:54:21.089Z,4.85
2022-09-23T19:56:49.802Z,4.55
2022-09-23T19:59:19.075Z,4.82
2022-09-23T20:01:47.875Z,4.95
2022-09-23T20:04:16.021Z,4.63
2022-09-23T20:06:43.471Z,4.68
2022-09-23T20:09:10.680Z,5.13
2022-09-23T20:11:38.086Z,4.88
2022-09-23T20:14:07.070Z,5.15
2022-09-23T20:16:36.957Z,5.20
2022-09-23T20:19:04.898Z,5.65
2022-09-23T20:21:31.834Z,6.45
2022-09-23T20:23:58.943Z,6.40
2022-09-23T20:26:44.590Z,6.60
2022-09-23T20:29:11.473Z,6.38
2022-09-23T20:31:40.315Z,7.78
2022-09-23T20:34:08.295Z,7.45
2022-09-23T20:36:36.090Z,6.57
2022-09-23T20:39:05.966Z,7.05
2022-09-23T20:41:37.335Z,6.85
2022-09-23T20:44:11.606Z,5.95
2022-09-23T20:46:38.907Z,6.50
2022-09-23T20:49:07.909Z,6.10
2022-09-23T20:51:36.151Z,6.45
2022-09-23T20:54:03.734Z,6.40
2022-09-23T20:56:31.264Z,6.65
2022-09-23T20:59:02.408Z,6.93
2022-09-23T21:01:33.125Z,6.68
2022-09-23T21:04:00.677Z,7.20
2022-09-23T21:06:27.539Z,6.70
2022-09-23T21:08:55.010Z,6.40
2022-09-23T21:11:22.287Z,6.43
2022-09-23T21:13:51.385Z,6.13
2022-09-23T21:16:22.120Z,6.63
2022-09-23T21:18:50.507Z,6.13
2022-09-23T21:21:19.597Z,6.03
2022-09-23T21:23:47.188Z,6.35
2022-09-23T21:26:17.797Z,7.05
2022-09-23T21:28:53.250Z,6.07
2022-09-23T21:31:23.493Z,5.97
2022-09-23T21:33:59.200Z,6.43
2022-09-23T21:36:28.180Z,6.18
2022-09-23T21:38:56.101Z,6.65
2022-09-23T21:41:23.819Z,5.88
2022-09-23T21:43:50.812Z,6.40
2022-09-23T21:46:20.193Z,6.35
2022-09-23T21:48:51.978Z,5.93
2022-09-23T21:51:20.501Z,5.78
2022-09-23T22:05:09.445Z,6.07
2022-09-23T22:07:38.174Z,6.72
2022-09-23T22:10:05.995Z,5.45
2022-09-23T22:12:33.931Z,5.93
2022-09-23T22:15:00.694Z,6.00
2022-09-23T22:17:30.706Z,5.82
2022-09-23T22:19:58.527Z,6.18
2022-09-23T22:22:25.617Z,6.07
2022-09-23T22:24:52.542Z,6.55
2022-09-23T22:27:20.560Z,6.25
2022-09-23T22:30:06.263Z,6.50
2022-09-23T22:32:42.139Z,6.63
2022-09-23T22:37:40.493Z,7.05
2022-09-23T22:40:10.607Z,7.00
2022-09-23T22:42:37.554Z,6.55
2022-09-23T22:45:05.873Z,7.13
2022-09-23T22:47:37.679Z,7.32
2022-09-23T22:50:09.157Z,6.88
2022-09-23T22:52:39.353Z,6.68
2022-09-23T22:55:08.229Z,6.93
2022-09-23T22:57:35.329Z,7.20
2022-09-23T23:00:04.180Z,7.38
2022-09-23T23:02:31.534Z,7.30
2022-09-23T23:05:00.492Z,7.68
2022-09-23T23:07:27.262Z,7.40
2022-09-23T23:09:54.003Z,7.30
2022-09-23T23:12:21.273Z,7.35
2022-09-23T23:14:49.023Z,6.53
2022-09-23T23:17:15.848Z,7.78
2022-09-23T23:19:42.625Z,6.93
2022-09-23T23:22:09.433Z,7.05
2022-09-23T23:24:36.456Z,6.90
2022-09-23T23:27:03.280Z,6.72
2022-09-23T23:29:30.085Z,6.45
2022-09-23T23:31:56.966Z,6.53
2022-09-23T23:34:23.747Z,6.38
2022-09-23T23:36:56.754Z,6.72
2022-09-23T23:39:24.799Z,7.50
2022-09-23T23:41:56.814Z,6.43
2022-09-23T23:44:25.591Z,6.13
2022-09-23T23:46:54.359Z,6.75
2022-09-23T23:49:21.680Z,6.85
2022-09-23T23:51:48.638Z,7.32
2022-09-23T23:54:15.680Z,7.43
2022-09-23T23:56:42.844Z,7.25
2022-09-23T23:59:09.654Z,7.32
